createdAt,value
2019-02-20T00:44:58.482Z,12.17
2019-02-20T00:49:54.531Z,11.27
2019-02-20T01:30:50.512Z,11.67
2019-02-20T01:35:46.204Z,11.83
2019-02-20T03:57:58.856Z,14.03
2019-02-20T04:02:54.535Z,14.00
2019-02-20T06:04:49.743Z,17.40
2019-02-20T06:09:45.403Z,16.63
2019-02-20T06:14:41.307Z,16.83
2019-02-20T06:19:36.998Z,16.67
2019-02-20T06:24:33.278Z,17.03
2019-02-20T06:29:29.171Z,16.43
2019-02-20T06:34:24.918Z,17.47
2019-02-20T06:39:20.925Z,17.70
2019-02-20T06:44:16.816Z,18.37
2019-02-20T06:49:12.490Z,18.83
2019-02-20T06:54:08.391Z,18.90
2019-02-20T06:59:04.093Z,20.17
2019-02-20T07:04:00.055Z,19.70
2019-02-20T07:09:10.152Z,20.90
2019-02-20T07:14:07.727Z,19.43
2019-02-20T07:19:05.533Z,21.83
2019-02-20T07:24:06.551Z,19.30
2019-02-20T07:29:04.274Z,20.60
2019-02-20T07:34:00.389Z,20.57
2019-02-20T07:38:56.075Z,19.77
2019-02-20T07:43:52.523Z,19.03
2019-02-20T07:48:48.201Z,19.30
2019-02-20T07:53:44.602Z,19.30
2019-02-20T07:58:40.273Z,20.33
2019-02-20T08:03:36.159Z,19.33
2019-02-20T08:08:31.841Z,20.63
2019-02-20T08:13:27.902Z,20.70
2019-02-20T08:18:23.579Z,20.87
2019-02-20T08:23:19.783Z,21.30
2019-02-20T08:28:16.098Z,21.30
2019-02-20T08:33:11.954Z,21.10
2019-02-20T08:38:07.651Z,21.83
2019-02-20T08:43:03.885Z,22.03
2019-02-20T08:47:59.780Z,21.80
2019-02-20T08:52:56.084Z,22.73
2019-02-20T08:57:51.763Z,23.03
2019-02-20T09:02:47.724Z,20.90
2019-02-20T09:07:43.567Z,21.27
2019-02-20T09:12:39.560Z,22.40
2019-02-20T09:17:35.257Z,22.10
2019-02-20T09:22:31.619Z,20.77
2019-02-20T09:27:27.665Z,22.10
2019-02-20T09:32:23.631Z,22.83
2019-02-20T09:37:19.519Z,21.47
2019-02-20T09:42:15.419Z,21.93
2019-02-20T09:47:11.118Z,20.90
2019-02-20T09:52:07.096Z,21.93
2019-02-20T09:57:02.765Z,21.87
2019-02-20T10:01:59.110Z,20.13
2019-02-20T10:06:54.874Z,20.53
2019-02-20T10:11:50.849Z,20.03
2019-02-20T10:16:46.521Z,19.40
2019-02-20T10:21:42.723Z,20.50
2019-02-20T10:26:38.395Z,19.97
2019-02-20T10:31:34.790Z,18.63
2019-02-20T10:36:30.465Z,19.57
2019-02-20T10:41:26.509Z,20.00
2019-02-20T10:46:22.205Z,19.63
2019-02-20T10:51:18.054Z,19.97
2019-02-20T10:56:13.743Z,18.83
2019-02-20T11:01:09.719Z,18.00
2019-02-20T11:06:05.404Z,18.07
2019-02-20T11:11:01.290Z,18.00
2019-02-20T11:15:58.842Z,17.07
2019-02-20T11:20:54.921Z,17.57
2019-02-20T11:25:51.382Z,17.43
2019-02-20T11:30:47.516Z,16.13
2019-02-20T11:35:43.200Z,15.93
2019-02-20T11:40:39.179Z,15.32
2019-02-20T11:45:34.875Z,16.05
2019-02-20T11:50:31.159Z,11.97
2019-02-20T11:55:26.842Z,12.82
2019-02-20T12:00:22.717Z,14.10
2019-02-20T12:05:18.407Z,14.45
2019-02-20T12:10:15.138Z,14.98
2019-02-20T12:15:10.908Z,12.90
2019-02-20T13:06:30.692Z,12.30
2019-02-20T13:11:26.390Z,12.57
2019-02-20T15:44:04.687Z,8.40
2019-02-20T15:49:20.795Z,9.47
2019-02-20T15:54:18.643Z,8.13
2019-02-20T16:14:25.865Z,8.87
2019-02-20T16:19:21.649Z,8.87
2019-02-20T16:29:19.725Z,9.13
2019-02-20T17:46:45.765Z,6.20
2019-02-20T17:51:41.544Z,6.63
2019-02-20T18:06:41.786Z,5.60
2019-02-20T18:11:37.454Z,5.57
2019-02-20T18:36:55.188Z,5.40
2019-02-20T18:47:00.175Z,5.30
2019-02-20T18:51:56.294Z,5.23
2019-02-20T18:56:52.136Z,5.27
2019-02-20T19:01:47.855Z,5.97
2019-02-20T19:12:06.237Z,5.23
2019-02-20T19:17:22.466Z,5.60
2019-02-20T19:28:01.575Z,5.50
2019-02-20T19:38:50.139Z,4.50
2019-02-20T20:05:41.400Z,5.47
2019-02-20T20:10:57.450Z,6.67
2019-02-20T20:16:13.203Z,5.70
2019-02-20T20:21:28.896Z,6.03
2019-02-20T20:26:47.194Z,5.90
2019-02-20T20:32:02.443Z,6.10
2019-02-20T20:42:51.783Z,5.77
2019-02-20T20:48:11.831Z,5.73
2019-02-20T20:58:48.517Z,6.10
2019-02-20T21:04:04.266Z,5.97
2019-02-20T21:14:43.727Z,5.57
2019-02-20T21:25:22.845Z,5.97
2019-02-20T21:30:38.556Z,5.53
2019-02-20T21:35:54.581Z,5.53
2019-02-20T21:46:41.709Z,6.17
2019-02-20T21:51:57.636Z,5.40
2019-02-20T22:02:41.824Z,5.37
2019-02-20T22:07:57.616Z,5.20
2019-02-20T22:13:13.469Z,5.20
2019-02-20T22:23:52.574Z,4.90
2019-02-20T22:29:08.542Z,5.03
2019-02-20T22:34:24.537Z,5.23
2019-02-20T22:39:40.423Z,5.90
2019-02-20T22:44:56.301Z,6.20
2019-02-20T22:50:14.639Z,5.30
2019-02-20T22:55:30.362Z,5.30
2019-02-20T23:06:17.231Z,4.87
2019-02-20T23:11:32.954Z,5.07
2019-02-20T23:16:28.637Z,5.70
